Taiseimaru — JL6483 — position and weather

sailwx.info

Track history (hours):
 
Tides and Currents Weather Stations Pressure Air Temp Water Temp Dewpoint Dewpoint Depression Visibility Wind Speed Wind Dir Waves Ship Positions

Taiseimaru

Last reported at 2017-Oct-13 22:21 UTC. Time now 2017-Oct-18 11:38 UTC.
Position N 34°51' E 139°48'.

Length 84 m; draft 4.7 m.

Type: Cargo ship. MMSI: 431500568.

Date/timePositionNaut miles runAvg speedWind from/ knotsBaromVisibWave heightAir tempDewpointWater temp
2017-Oct-13 22:21N 34°51' E 139°48'411.1
2017-Oct-13 22:00N 34°51' E 139°43'510.8
2017-Oct-13 21:30N 34°50' E 139°37'232 9.1
2017-Oct-12 20:04N 34°00' E 135°02'211.8
2017-Oct-12 19:55N 34°02' E 135°02'511.6
2017-Oct-12 19:30N 34°07' E 135°03'511.1
2017-Oct-12 19:00N 34°12' E 135°04'3 6.9
2017-Oct-12 18:31N 34°15' E 135°07'0 0.2
2017-Oct-12 18:00N 34°15' E 135°07'0 0.0
2017-Oct-12 17:30N 34°15' E 135°07'0 0.0
2017-Oct-12 16:57N 34°15' E 135°07'0 0.0
2017-Oct-12 16:30N 34°15' E 135°07'0 0.0
2017-Oct-12 16:00N 34°15' E 135°07'0 0.0
2017-Oct-12 15:30N 34°15' E 135°07'0 0.0
2017-Oct-12 15:00N 34°15' E 135°07'0 0.0
2017-Oct-12 14:30N 34°15' E 135°07'0 0.0
2017-Oct-12 14:00N 34°15' E 135°07'0 0.0
2017-Oct-12 13:30N 34°15' E 135°07'0 0.0
2017-Oct-12 13:00N 34°15' E 135°07'0 0.0
2017-Oct-12 12:30N 34°15' E 135°07'0 0.0
2017-Oct-12 11:54N 34°15' E 135°07'0 0.0
2017-Oct-12 11:30N 34°15' E 135°07'0 0.0
2017-Oct-12 11:00N 34°15' E 135°07'0 0.0
2017-Oct-12 10:30N 34°15' E 135°07'0 0.0
2017-Oct-12 10:00N 34°15' E 135°07'0 0.0
2017-Oct-12 09:27N 34°15' E 135°07'0 0.0
2017-Oct-12 08:57N 34°15' E 135°07'0 0.0
2017-Oct-12 08:30N 34°15' E 135°07'0 0.0
2017-Oct-12 08:00N 34°15' E 135°07'1 1.2
2017-Oct-12 07:30N 34°15' E 135°06'0 0.2
2017-Oct-12 06:59N 34°15' E 135°06'0 0.0
2017-Oct-12 06:29N 34°15' E 135°06'0 0.0
2017-Oct-12 05:59N 34°15' E 135°06'0 0.0
2017-Oct-12 05:29N 34°15' E 135°06'1 1.2
2017-Oct-12 05:00N 34°14' E 135°05'5 9.4
2017-Oct-12 04:30N 34°10' E 135°08'0 0.7
2017-Oct-12 03:51N 34°10' E 135°09'0 0.1
2017-Oct-12 03:24N 34°10' E 135°09'0 0.1
2017-Oct-12 02:57N 34°10' E 135°09'0 0.0
2017-Oct-12 02:27N 34°10' E 135°09'0 0.1
2017-Oct-12 01:57N 34°10' E 135°09'0 0.0
2017-Oct-12 01:30N 34°10' E 135°09'2 4.7
2017-Oct-12 01:00N 34°09' E 135°06'611.5
2017-Oct-12 00:28N 34°04' E 135°03'  
2017-Oct-08 06:00N 34°58' E 139°28'510.9
2017-Oct-08 05:30N 35°02' E 139°33'611.8
2017-Oct-08 05:00N 35°05' E 139°39'612.4
2017-Oct-08 04:31N 35°10' E 139°44'611.4
2017-Oct-08 04:00N 35°15' E 139°46'611.5
2017-Oct-08 03:30N 35°20' E 139°42'2 4.2
2017-Oct-08 03:00N 35°21' E 139°40'0 0.1
2017-Oct-08 02:29N 35°21' E 139°40'0 0.0
2017-Oct-08 01:59N 35°21' E 139°40'0 0.0
2017-Oct-08 01:29N 35°21' E 139°40'0 0.1
2017-Oct-08 00:59N 35°21' E 139°40'0 0.0
2017-Oct-08 00:29N 35°21' E 139°40'0 0.0
2017-Oct-07 23:59N 35°21' E 139°40'0 0.0
2017-Oct-07 23:29N 35°21' E 139°40'0 0.0
2017-Oct-07 22:59N 35°21' E 139°40'0 0.0
2017-Oct-07 22:26N 35°21' E 139°40'0 0.0
2017-Oct-07 21:59N 35°21' E 139°40'0 0.1
2017-Oct-07 21:29N 35°21' E 139°40'0 0.1
2017-Oct-07 20:59N 35°21' E 139°40'0 0.1
2017-Oct-07 20:29N 35°21' E 139°40'0 0.0
2017-Oct-07 19:59N 35°21' E 139°40'0 0.1
2017-Oct-07 19:29N 35°21' E 139°40'0 0.1
2017-Oct-07 18:59N 35°21' E 139°40'0 0.0
2017-Oct-07 18:29N 35°21' E 139°40'0 0.0
2017-Oct-07 17:59N 35°21' E 139°40'0 0.0
2017-Oct-07 17:29N 35°21' E 139°40'0 0.0
2017-Oct-07 16:59N 35°21' E 139°40'0 0.1
2017-Oct-07 16:29N 35°21' E 139°40'0 0.0
2017-Oct-07 15:59N 35°21' E 139°40'0 0.0
2017-Oct-07 15:29N 35°21' E 139°40'0 0.0
2017-Oct-07 14:59N 35°21' E 139°40'0 0.0
2017-Oct-07 14:29N 35°21' E 139°40'0 0.0
2017-Oct-07 13:59N 35°21' E 139°40'0 0.0
2017-Oct-07 13:29N 35°21' E 139°40'0 0.1
2017-Oct-07 12:59N 35°21' E 139°40'0 0.0
2017-Oct-07 12:29N 35°21' E 139°40'0 0.0
2017-Oct-07 11:59N 35°21' E 139°40'0 0.0
2017-Oct-07 11:29N 35°21' E 139°40'0 0.0
2017-Oct-07 10:59N 35°21' E 139°40'0 0.0
2017-Oct-07 10:29N 35°21' E 139°40'0 0.0
2017-Oct-07 09:59N 35°21' E 139°40'0 0.0
2017-Oct-07 09:29N 35°21' E 139°40'0 0.0
2017-Oct-07 08:59N 35°21' E 139°40'0 0.0
2017-Oct-07 08:29N 35°21' E 139°40'0 0.0
2017-Oct-07 07:59N 35°21' E 139°40'0 0.0
2017-Oct-07 07:29N 35°21' E 139°40'0 0.0
2017-Oct-07 06:58N 35°21' E 139°40'0 0.0
2017-Oct-07 06:28N 35°21' E 139°40'0 0.0
2017-Oct-07 05:58N 35°21' E 139°40'0 0.0
2017-Oct-07 05:28N 35°21' E 139°40'0 0.0
2017-Oct-07 04:58N 35°21' E 139°40'0 0.0
2017-Oct-07 04:25N 35°21' E 139°40'0 0.0
2017-Oct-07 03:58N 35°21' E 139°40'0 0.0
2017-Oct-07 03:28N 35°21' E 139°40'0 0.0
2017-Oct-07 02:58N 35°21' E 139°40'0 0.0
2017-Oct-07 02:28N 35°21' E 139°40'0 0.0
2017-Oct-07 01:55N 35°21' E 139°40'0 0.0
2017-Oct-07 01:28N 35°21' E 139°40'0 0.0
2017-Oct-07 00:58N 35°21' E 139°40'0 0.0
2017-Oct-07 00:28N 35°21' E 139°40'0 0.0
2017-Oct-06 23:55N 35°21' E 139°40'0 0.0
2017-Oct-06 23:28N 35°21' E 139°40'0 0.0
2017-Oct-06 22:58N 35°21' E 139°40'0 0.0
2017-Oct-06 22:28N 35°21' E 139°40'0 0.0
2017-Oct-06 21:58N 35°21' E 139°40'0 0.0
2017-Oct-06 21:28N 35°21' E 139°40'0 0.0
2017-Oct-06 20:58N 35°21' E 139°40'0 0.0
2017-Oct-06 20:28N 35°21' E 139°40'0 0.0
2017-Oct-06 19:58N 35°21' E 139°40'0 0.1
2017-Oct-06 19:28N 35°21' E 139°40'0 0.1
2017-Oct-06 18:58N 35°21' E 139°40'0 0.0
2017-Oct-06 18:28N 35°21' E 139°40'0 0.1
2017-Oct-06 17:55N 35°21' E 139°40'0 0.1
2017-Oct-06 17:28N 35°21' E 139°40'0 0.0
2017-Oct-06 16:58N 35°21' E 139°40'0 0.0
2017-Oct-06 16:28N 35°21' E 139°40'0 0.0
2017-Oct-06 15:58N 35°21' E 139°40'0 0.0
2017-Oct-06 15:28N 35°21' E 139°40'0 0.0
2017-Oct-06 14:58N 35°21' E 139°40'0 0.0
2017-Oct-06 14:28N 35°21' E 139°40'0 0.0
2017-Oct-06 13:58N 35°21' E 139°40'0 0.0
2017-Oct-06 13:28N 35°21' E 139°40'0 0.0
2017-Oct-06 12:58N 35°21' E 139°40'0 0.0
2017-Oct-06 12:28N 35°21' E 139°40'0 0.0
2017-Oct-06 11:58N 35°21' E 139°40'0 0.0
2017-Oct-06 11:28N 35°21' E 139°40'0 0.0
2017-Oct-06 10:58N 35°21' E 139°40'0 0.0
2017-Oct-06 10:28N 35°21' E 139°40'0 0.0
2017-Oct-06 09:58N 35°21' E 139°40'0 0.0
2017-Oct-06 09:28N 35°21' E 139°40'0 0.0
2017-Oct-06 08:58N 35°21' E 139°40'0 0.0
2017-Oct-06 08:28N 35°21' E 139°40'0 0.0
2017-Oct-06 07:58N 35°21' E 139°40'0 0.0
2017-Oct-06 07:28N 35°21' E 139°40'0 0.0
2017-Oct-06 06:58N 35°21' E 139°40'0 0.0
2017-Oct-06 06:28N 35°21' E 139°40'0 0.0
2017-Oct-06 05:58N 35°21' E 139°40'0 0.0
2017-Oct-06 05:28N 35°21' E 139°40'0 0.0
2017-Oct-06 04:58N 35°21' E 139°40'0 0.1
2017-Oct-06 04:31N 35°21' E 139°40'3 6.8
2017-Oct-06 04:01N 35°19' E 139°44'510.4
2017-Oct-06 03:30N 35°15' E 139°47'5 9.7
2017-Oct-06 03:00N 35°10' E 139°46'5 9.4
2017-Oct-06 02:30N 35°05' E 139°45'5 9.8
2017-Oct-06 02:00N 35°00' E 139°44'5 8.9
2017-Oct-06 01:28N 34°56' E 139°45'  
Track history (hours):
 
Tides and Currents Weather Stations Pressure Air Temp Water Temp Dewpoint Dewpoint Depression Visibility Wind Speed Wind Dir Waves Ship Positions

Taiseimaru

Last reported at 2017-Oct-13 22:21 UTC. Time now 2017-Oct-18 11:38 UTC.
Position N 34°51' E 139°48'.

Length 84 m; draft 4.7 m.

Type: Cargo ship. MMSI: 431500568.

Date/timePositionNaut miles runAvg speedWind from/ knotsBaromVisibWave heightAir tempDewpointWater temp
2017-Oct-13 22:21N 34°51' E 139°48'411.1
2017-Oct-13 22:00N 34°51' E 139°43'510.8
2017-Oct-13 21:30N 34°50' E 139°37'232 9.1
2017-Oct-12 20:04N 34°00' E 135°02'211.8
2017-Oct-12 19:55N 34°02' E 135°02'511.6
2017-Oct-12 19:30N 34°07' E 135°03'511.1
2017-Oct-12 19:00N 34°12' E 135°04'3 6.9
2017-Oct-12 18:31N 34°15' E 135°07'0 0.2
2017-Oct-12 18:00N 34°15' E 135°07'0 0.0
2017-Oct-12 17:30N 34°15' E 135°07'0 0.0
2017-Oct-12 16:57N 34°15' E 135°07'0 0.0
2017-Oct-12 16:30N 34°15' E 135°07'0 0.0
2017-Oct-12 16:00N 34°15' E 135°07'0 0.0
2017-Oct-12 15:30N 34°15' E 135°07'0 0.0
2017-Oct-12 15:00N 34°15' E 135°07'0 0.0
2017-Oct-12 14:30N 34°15' E 135°07'0 0.0
2017-Oct-12 14:00N 34°15' E 135°07'0 0.0
2017-Oct-12 13:30N 34°15' E 135°07'0 0.0
2017-Oct-12 13:00N 34°15' E 135°07'0 0.0
2017-Oct-12 12:30N 34°15' E 135°07'0 0.0
2017-Oct-12 11:54N 34°15' E 135°07'0 0.0
2017-Oct-12 11:30N 34°15' E 135°07'0 0.0
2017-Oct-12 11:00N 34°15' E 135°07'0 0.0
2017-Oct-12 10:30N 34°15' E 135°07'0 0.0
2017-Oct-12 10:00N 34°15' E 135°07'0 0.0
2017-Oct-12 09:27N 34°15' E 135°07'0 0.0
2017-Oct-12 08:57N 34°15' E 135°07'0 0.0
2017-Oct-12 08:30N 34°15' E 135°07'0 0.0
2017-Oct-12 08:00N 34°15' E 135°07'1 1.2
2017-Oct-12 07:30N 34°15' E 135°06'0 0.2
2017-Oct-12 06:59N 34°15' E 135°06'0 0.0
2017-Oct-12 06:29N 34°15' E 135°06'0 0.0
2017-Oct-12 05:59N 34°15' E 135°06'0 0.0
2017-Oct-12 05:29N 34°15' E 135°06'1 1.2
2017-Oct-12 05:00N 34°14' E 135°05'5 9.4
2017-Oct-12 04:30N 34°10' E 135°08'0 0.7
2017-Oct-12 03:51N 34°10' E 135°09'0 0.1
2017-Oct-12 03:24N 34°10' E 135°09'0 0.1
2017-Oct-12 02:57N 34°10' E 135°09'0 0.0
2017-Oct-12 02:27N 34°10' E 135°09'0 0.1
2017-Oct-12 01:57N 34°10' E 135°09'0 0.0
2017-Oct-12 01:30N 34°10' E 135°09'2 4.7
2017-Oct-12 01:00N 34°09' E 135°06'611.5
2017-Oct-12 00:28N 34°04' E 135°03'  
2017-Oct-08 06:00N 34°58' E 139°28'510.9
2017-Oct-08 05:30N 35°02' E 139°33'611.8
2017-Oct-08 05:00N 35°05' E 139°39'612.4
2017-Oct-08 04:31N 35°10' E 139°44'611.4
2017-Oct-08 04:00N 35°15' E 139°46'611.5
2017-Oct-08 03:30N 35°20' E 139°42'2 4.2
2017-Oct-08 03:00N 35°21' E 139°40'0 0.1
2017-Oct-08 02:29N 35°21' E 139°40'0 0.0
2017-Oct-08 01:59N 35°21' E 139°40'0 0.0
2017-Oct-08 01:29N 35°21' E 139°40'0 0.1
2017-Oct-08 00:59N 35°21' E 139°40'0 0.0
2017-Oct-08 00:29N 35°21' E 139°40'0 0.0
2017-Oct-07 23:59N 35°21' E 139°40'0 0.0
2017-Oct-07 23:29N 35°21' E 139°40'0 0.0
2017-Oct-07 22:59N 35°21' E 139°40'0 0.0
2017-Oct-07 22:26N 35°21' E 139°40'0 0.0
2017-Oct-07 21:59N 35°21' E 139°40'0 0.1
2017-Oct-07 21:29N 35°21' E 139°40'0 0.1
2017-Oct-07 20:59N 35°21' E 139°40'0 0.1
2017-Oct-07 20:29N 35°21' E 139°40'0 0.0
2017-Oct-07 19:59N 35°21' E 139°40'0 0.1
2017-Oct-07 19:29N 35°21' E 139°40'0 0.1
2017-Oct-07 18:59N 35°21' E 139°40'0 0.0
2017-Oct-07 18:29N 35°21' E 139°40'0 0.0
2017-Oct-07 17:59N 35°21' E 139°40'0 0.0
2017-Oct-07 17:29N 35°21' E 139°40'0 0.0
2017-Oct-07 16:59N 35°21' E 139°40'0 0.1
2017-Oct-07 16:29N 35°21' E 139°40'0 0.0
2017-Oct-07 15:59N 35°21' E 139°40'0 0.0
2017-Oct-07 15:29N 35°21' E 139°40'0 0.0
2017-Oct-07 14:59N 35°21' E 139°40'0 0.0
2017-Oct-07 14:29N 35°21' E 139°40'0 0.0
2017-Oct-07 13:59N 35°21' E 139°40'0 0.0
2017-Oct-07 13:29N 35°21' E 139°40'0 0.1
2017-Oct-07 12:59N 35°21' E 139°40'0 0.0
2017-Oct-07 12:29N 35°21' E 139°40'0 0.0
2017-Oct-07 11:59N 35°21' E 139°40'0 0.0
2017-Oct-07 11:29N 35°21' E 139°40'0 0.0
2017-Oct-07 10:59N 35°21' E 139°40'0 0.0
2017-Oct-07 10:29N 35°21' E 139°40'0 0.0
2017-Oct-07 09:59N 35°21' E 139°40'0 0.0
2017-Oct-07 09:29N 35°21' E 139°40'0 0.0
2017-Oct-07 08:59N 35°21' E 139°40'0 0.0
2017-Oct-07 08:29N 35°21' E 139°40'0 0.0
2017-Oct-07 07:59N 35°21' E 139°40'0 0.0
2017-Oct-07 07:29N 35°21' E 139°40'0 0.0
2017-Oct-07 06:58N 35°21' E 139°40'0 0.0
2017-Oct-07 06:28N 35°21' E 139°40'0 0.0
2017-Oct-07 05:58N 35°21' E 139°40'0 0.0
2017-Oct-07 05:28N 35°21' E 139°40'0 0.0
2017-Oct-07 04:58N 35°21' E 139°40'0 0.0
2017-Oct-07 04:25N 35°21' E 139°40'0 0.0
2017-Oct-07 03:58N 35°21' E 139°40'0 0.0
2017-Oct-07 03:28N 35°21' E 139°40'0 0.0
2017-Oct-07 02:58N 35°21' E 139°40'0 0.0
2017-Oct-07 02:28N 35°21' E 139°40'0 0.0
2017-Oct-07 01:55N 35°21' E 139°40'0 0.0
2017-Oct-07 01:28N 35°21' E 139°40'0 0.0
2017-Oct-07 00:58N 35°21' E 139°40'0 0.0
2017-Oct-07 00:28N 35°21' E 139°40'0 0.0
2017-Oct-06 23:55N 35°21' E 139°40'0 0.0
2017-Oct-06 23:28N 35°21' E 139°40'0 0.0
2017-Oct-06 22:58N 35°21' E 139°40'0 0.0
2017-Oct-06 22:28N 35°21' E 139°40'0 0.0
2017-Oct-06 21:58N 35°21' E 139°40'0 0.0
2017-Oct-06 21:28N 35°21' E 139°40'0 0.0
2017-Oct-06 20:58N 35°21' E 139°40'0 0.0
2017-Oct-06 20:28N 35°21' E 139°40'0 0.0
2017-Oct-06 19:58N 35°21' E 139°40'0 0.1
2017-Oct-06 19:28N 35°21' E 139°40'0 0.1
2017-Oct-06 18:58N 35°21' E 139°40'0 0.0
2017-Oct-06 18:28N 35°21' E 139°40'0 0.1
2017-Oct-06 17:55N 35°21' E 139°40'0 0.1
2017-Oct-06 17:28N 35°21' E 139°40'0 0.0
2017-Oct-06 16:58N 35°21' E 139°40'0 0.0
2017-Oct-06 16:28N 35°21' E 139°40'0 0.0
2017-Oct-06 15:58N 35°21' E 139°40'0 0.0
2017-Oct-06 15:28N 35°21' E 139°40'0 0.0
2017-Oct-06 14:58N 35°21' E 139°40'0 0.0
2017-Oct-06 14:28N 35°21' E 139°40'0 0.0
2017-Oct-06 13:58N 35°21' E 139°40'0 0.0
2017-Oct-06 13:28N 35°21' E 139°40'0 0.0
2017-Oct-06 12:58N 35°21' E 139°40'0 0.0
2017-Oct-06 12:28N 35°21' E 139°40'0 0.0
2017-Oct-06 11:58N 35°21' E 139°40'0 0.0
2017-Oct-06 11:28N 35°21' E 139°40'0 0.0
2017-Oct-06 10:58N 35°21' E 139°40'0 0.0
2017-Oct-06 10:28N 35°21' E 139°40'0 0.0
2017-Oct-06 09:58N 35°21' E 139°40'0 0.0
2017-Oct-06 09:28N 35°21' E 139°40'0 0.0
2017-Oct-06 08:58N 35°21' E 139°40'0 0.0
2017-Oct-06 08:28N 35°21' E 139°40'0 0.0
2017-Oct-06 07:58N 35°21' E 139°40'0 0.0
2017-Oct-06 07:28N 35°21' E 139°40'0 0.0
2017-Oct-06 06:58N 35°21' E 139°40'0 0.0
2017-Oct-06 06:28N 35°21' E 139°40'0 0.0
2017-Oct-06 05:58N 35°21' E 139°40'0 0.0
2017-Oct-06 05:28N 35°21' E 139°40'0 0.0
2017-Oct-06 04:58N 35°21' E 139°40'0 0.1
2017-Oct-06 04:31N 35°21' E 139°40'3 6.8
2017-Oct-06 04:01N 35°19' E 139°44'510.4
2017-Oct-06 03:30N 35°15' E 139°47'5 9.7
2017-Oct-06 03:00N 35°10' E 139°46'5 9.4
2017-Oct-06 02:30N 35°05' E 139°45'5 9.8
2017-Oct-06 02:00N 35°00' E 139°44'5 8.9
2017-Oct-06 01:28N 34°56' E 139°45'  

Dump ship's entire track history